createdAt,value
2023-01-04T00:01:07.683Z,4.60
2023-01-04T00:03:34.961Z,4.60
2023-01-04T00:06:04.030Z,4.50
2023-01-04T00:08:31.292Z,4.60
2023-01-04T00:11:06.689Z,4.60
2023-01-04T00:13:33.955Z,4.60
2023-01-04T00:16:09.505Z,4.40
2023-01-04T00:18:37.222Z,4.30
2023-01-04T00:21:08.040Z,4.40
2023-01-04T00:23:34.858Z,4.40
2023-01-04T00:26:01.638Z,4.40
2023-01-04T00:28:28.426Z,4.40
2023-01-04T00:30:55.194Z,4.40
2023-01-04T00:33:21.944Z,4.30
2023-01-04T00:35:48.695Z,4.30
2023-01-04T00:38:15.430Z,4.30
2023-01-04T00:40:42.189Z,4.30
2023-01-04T00:43:08.923Z,4.30
2023-01-04T00:45:35.680Z,4.20
2023-01-04T00:48:02.442Z,4.30
2023-01-04T00:50:29.214Z,4.00
2023-01-04T00:52:55.964Z,4.10
2023-01-04T00:55:22.708Z,4.10
2023-01-04T00:57:49.472Z,4.20
2023-01-04T01:00:16.499Z,4.30
2023-01-04T01:02:43.521Z,4.20
2023-01-04T01:05:10.514Z,4.10
2023-01-04T01:07:37.295Z,4.10
2023-01-04T01:10:04.644Z,4.30
2023-01-04T01:12:31.517Z,4.30
2023-01-04T01:15:00.591Z,4.30
2023-01-04T01:17:27.725Z,4.10
2023-01-04T01:19:54.599Z,4.20
2023-01-04T01:22:21.416Z,4.20
2023-01-04T01:24:48.226Z,4.30
2023-01-04T01:27:14.988Z,4.30
2023-01-04T01:29:41.751Z,4.40
2023-01-04T01:32:08.523Z,4.40
2023-01-04T01:34:35.298Z,4.10
2023-01-04T01:37:02.826Z,4.10
2023-01-04T01:39:29.657Z,4.20
2023-01-04T01:41:56.504Z,4.30
2023-01-04T01:44:42.110Z,4.30
2023-01-04T01:47:17.727Z,4.30
2023-01-04T01:49:47.629Z,4.30
2023-01-04T01:52:35.196Z,4.20
2023-01-04T01:55:06.996Z,4.20
2023-01-04T01:57:34.530Z,4.30
2023-01-04T02:00:07.279Z,4.30
2023-01-04T02:02:34.693Z,4.30
2023-01-04T02:05:03.040Z,4.30
2023-01-04T02:07:29.967Z,4.30
2023-01-04T02:09:58.313Z,4.40
2023-01-04T02:12:25.823Z,4.40
2023-01-04T02:14:52.755Z,4.40
2023-01-04T02:17:39.613Z,4.50
2023-01-04T02:20:12.128Z,4.40
2023-01-04T02:22:41.715Z,4.50
2023-01-04T02:25:21.743Z,4.60
2023-01-04T02:27:53.730Z,4.60
2023-01-04T02:30:29.452Z,4.60
2023-01-04T02:32:59.516Z,4.50
2023-01-04T02:35:41.298Z,4.60
2023-01-04T02:38:08.009Z,4.60
2023-01-04T02:40:51.398Z,4.70
2023-01-04T02:43:47.716Z,4.60
2023-01-04T02:46:21.916Z,4.50
2023-01-04T02:49:08.008Z,4.50
2023-01-04T02:51:36.684Z,4.60
2023-01-04T02:54:27.307Z,4.60
2023-01-04T02:57:25.561Z,4.60
2023-01-04T03:00:16.019Z,4.60
2023-01-04T03:03:26.629Z,4.60
2023-01-04T03:06:18.081Z,4.60
2023-01-04T03:09:06.636Z,4.50
2023-01-04T03:12:02.578Z,4.50
2023-01-04T03:14:35.820Z,4.50
2023-01-04T03:17:07.772Z,4.60
2023-01-04T03:19:51.739Z,4.60
2023-01-04T03:22:51.586Z,4.50
2023-01-04T03:25:40.044Z,4.60
2023-01-04T03:28:26.874Z,4.60
2023-01-04T03:31:48.178Z,4.60
2023-01-04T03:34:34.083Z,4.60
2023-01-04T03:37:16.761Z,4.60
2023-01-04T03:40:18.903Z,4.60
2023-01-04T03:43:11.028Z,4.70
2023-01-04T03:45:59.212Z,4.60
2023-01-04T03:48:39.040Z,4.60
2023-01-04T03:51:37.200Z,4.70
2023-01-04T03:54:15.738Z,4.70
2023-01-04T03:56:44.870Z,4.70
2023-01-04T03:59:12.956Z,4.70
2023-01-04T04:01:42.026Z,4.70
2023-01-04T04:04:28.026Z,4.70
2023-01-04T04:07:13.493Z,4.80
2023-01-04T04:09:40.259Z,4.80
2023-01-04T04:12:07.169Z,4.80
2023-01-04T04:14:34.186Z,4.80
2023-01-04T04:17:01.205Z,4.80
2023-01-04T04:19:28.019Z,4.80
2023-01-04T04:21:54.771Z,4.80
2023-01-04T04:24:24.639Z,4.70
2023-01-04T04:26:54.460Z,4.70
2023-01-04T04:29:21.988Z,4.70
2023-01-04T04:31:49.040Z,4.70
2023-01-04T04:34:15.977Z,4.60
2023-01-04T04:36:42.737Z,4.60
2023-01-04T04:39:09.577Z,4.60
2023-01-04T04:41:39.223Z,4.70
2023-01-04T04:44:14.694Z,4.80
2023-01-04T04:46:42.731Z,4.80
2023-01-04T04:49:10.463Z,4.90
2023-01-04T04:51:37.931Z,4.80
2023-01-04T04:54:07.590Z,4.80
2023-01-04T04:56:36.922Z,4.70
2023-01-04T04:59:05.392Z,4.80
2023-01-04T05:01:32.725Z,4.80
2023-01-04T05:03:59.665Z,4.70
2023-01-04T05:06:27.845Z,4.70
2023-01-04T05:08:54.779Z,4.80
2023-01-04T05:11:41.552Z,4.70
2023-01-04T05:14:09.307Z,4.70
2023-01-04T05:16:36.488Z,4.60
2023-01-04T05:19:03.450Z,4.60
2023-01-04T05:21:30.218Z,4.60
2023-01-04T05:23:57.662Z,4.70
2023-01-04T05:26:24.447Z,4.80
2023-01-04T05:28:53.964Z,4.80
2023-01-04T05:31:21.627Z,4.70
2023-01-04T05:33:48.501Z,4.60
2023-01-04T05:36:15.332Z,4.60
2023-01-04T05:38:42.088Z,4.60
2023-01-04T05:41:28.911Z,4.60
2023-01-04T05:43:55.780Z,4.60
2023-01-04T05:46:22.949Z,4.60
2023-01-04T05:48:49.756Z,4.70
2023-01-04T05:51:16.543Z,4.70
2023-01-04T05:53:43.332Z,4.80
2023-01-04T05:56:10.113Z,4.80
2023-01-04T05:58:36.884Z,4.80
2023-01-04T06:01:03.709Z,4.70
2023-01-04T06:03:30.621Z,4.70
2023-01-04T06:05:57.488Z,4.70
2023-01-04T06:08:24.285Z,4.70
2023-01-04T06:10:54.815Z,4.80
2023-01-04T06:13:21.727Z,4.90
2023-01-04T06:15:48.491Z,4.80
2023-01-04T06:18:15.257Z,4.80
2023-01-04T06:20:43.742Z,4.80
2023-01-04T06:23:10.970Z,4.70
2023-01-04T06:25:38.123Z,4.40
2023-01-04T06:28:04.941Z,4.50
2023-01-04T06:30:32.043Z,4.50
2023-01-04T06:32:58.934Z,4.60
2023-01-04T06:35:25.751Z,4.50
2023-01-04T06:37:52.551Z,4.50
2023-01-04T06:40:19.332Z,4.50
2023-01-04T06:42:46.152Z,4.60
2023-01-04T06:45:14.964Z,4.50
2023-01-04T06:47:42.324Z,4.40
2023-01-04T06:50:10.324Z,4.40
2023-01-04T06:52:37.157Z,4.40
2023-01-04T06:55:04.758Z,4.40
2023-01-04T06:57:32.286Z,4.40
2023-01-04T06:59:59.036Z,4.40
2023-01-04T07:02:26.912Z,4.50
2023-01-04T07:04:53.807Z,4.50
2023-01-04T07:07:20.763Z,4.50
2023-01-04T07:09:47.600Z,4.50
2023-01-04T07:12:14.385Z,4.50
2023-01-04T07:14:41.158Z,4.50
2023-01-04T07:17:08.004Z,4.50
2023-01-04T07:19:34.762Z,4.50
2023-01-04T07:22:02.028Z,4.60
2023-01-04T07:24:30.538Z,4.60
2023-01-04T07:26:59.902Z,4.60
2023-01-04T07:29:27.061Z,4.50
2023-01-04T07:31:54.340Z,4.60
2023-01-04T07:34:23.497Z,4.60
2023-01-04T07:36:50.731Z,4.60
2023-01-04T07:39:18.734Z,4.70
2023-01-04T07:41:46.127Z,4.70
2023-01-04T07:44:13.400Z,4.70
2023-01-04T07:46:40.336Z,4.80
2023-01-04T07:49:13.041Z,4.80
2023-01-04T07:51:43.268Z,4.90
2023-01-04T07:54:11.293Z,4.90
2023-01-04T07:56:38.126Z,4.90
2023-01-04T07:59:09.112Z,4.90
2023-01-04T08:01:38.559Z,5.00
2023-01-04T08:04:06.750Z,5.00
2023-01-04T08:06:36.374Z,5.00
2023-01-04T08:09:04.121Z,5.00
2023-01-04T08:11:31.444Z,5.00
2023-01-04T08:13:58.454Z,5.10
2023-01-04T08:16:28.220Z,5.10
2023-01-04T08:18:56.110Z,5.20
2023-01-04T08:21:23.411Z,5.20
2023-01-04T08:23:50.374Z,5.20
2023-01-04T08:26:17.495Z,5.30
2023-01-04T08:28:46.059Z,5.40
2023-01-04T08:31:33.560Z,5.40
2023-01-04T08:34:04.002Z,5.50
2023-01-04T08:36:32.762Z,5.40
2023-01-04T08:39:02.505Z,5.40
2023-01-04T08:41:57.453Z,5.40
2023-01-04T08:44:21.718Z,5.40
2023-01-04T08:46:49.665Z,5.40
2023-01-04T08:49:17.231Z,5.40
2023-01-04T08:51:45.037Z,5.40
2023-01-04T08:54:32.670Z,5.40
2023-01-04T08:56:59.694Z,5.50
2023-01-04T08:59:26.813Z,5.50
2023-01-04T09:01:53.887Z,5.50
2023-01-04T09:04:21.304Z,5.60
2023-01-04T09:06:48.154Z,5.60
2023-01-04T09:09:15.764Z,5.70
2023-01-04T09:11:42.682Z,5.70
2023-01-04T09:14:10.633Z,5.80
2023-01-04T09:16:38.650Z,5.80
2023-01-04T09:19:06.482Z,5.90
2023-01-04T09:21:33.368Z,5.90
2023-01-04T09:24:00.461Z,6.00
2023-01-04T09:26:27.332Z,6.00
2023-01-04T09:29:20.652Z,6.00
2023-01-04T09:31:47.598Z,6.00
2023-01-04T09:34:16.641Z,6.00
2023-01-04T09:36:48.852Z,6.10
2023-01-04T09:39:22.238Z,6.00
2023-01-04T09:42:00.387Z,6.00
2023-01-04T09:47:29.707Z,5.80
2023-01-04T09:50:23.722Z,5.70
2023-01-04T09:53:18.611Z,5.70
2023-01-04T09:55:50.457Z,5.70
2023-01-04T09:58:31.035Z,5.70
2023-01-04T10:01:00.720Z,5.80
2023-01-04T10:03:35.383Z,6.00
2023-01-04T10:06:03.502Z,6.10
2023-01-04T10:08:31.495Z,6.30
2023-01-04T10:10:58.277Z,6.30
2023-01-04T10:13:55.021Z,6.60
2023-01-04T10:16:44.281Z,6.70
2023-01-04T10:22:46.041Z,6.80
2023-01-04T10:25:32.248Z,7.00
2023-01-04T10:28:14.331Z,7.10
2023-01-04T10:31:39.592Z,7.00
2023-01-04T10:34:18.948Z,7.10
2023-01-04T10:36:48.002Z,7.10
2023-01-04T10:39:22.599Z,7.30
2023-01-04T10:42:21.747Z,7.40
2023-01-04T10:45:09.333Z,7.70
2023-01-04T10:47:55.785Z,7.70
2023-01-04T10:50:38.591Z,7.50
2023-01-04T10:53:16.917Z,7.70
2023-01-04T10:56:34.820Z,7.70
2023-01-04T10:59:21.195Z,8.00
2023-01-04T11:01:59.101Z,8.10
2023-01-04T11:04:54.760Z,8.10
2023-01-04T11:07:52.395Z,8.40
2023-01-04T11:11:15.389Z,8.60
2023-01-04T11:13:42.189Z,8.80
2023-01-04T11:16:09.169Z,8.80
2023-01-04T11:18:39.433Z,8.60
2023-01-04T11:21:12.424Z,8.60
2023-01-04T11:23:39.403Z,8.80
2023-01-04T11:26:20.781Z,8.50
2023-01-04T11:32:03.055Z,8.70
2023-01-04T11:34:47.624Z,8.90
2023-01-04T11:37:28.036Z,9.10
2023-01-04T11:40:18.825Z,9.10
2023-01-04T11:43:01.581Z,8.90
2023-01-04T11:45:28.515Z,8.90
2023-01-04T11:48:00.716Z,8.90
2023-01-04T11:50:37.554Z,8.80
2023-01-04T11:53:21.908Z,8.80
2023-01-04T11:56:34.730Z,9.10
2023-01-04T11:59:27.205Z,9.20
2023-01-04T12:02:58.612Z,9.40
2023-01-04T12:05:30.685Z,9.50
2023-01-04T12:07:59.131Z,9.70
2023-01-04T12:10:27.836Z,9.50
2023-01-04T12:12:56.453Z,9.70
2023-01-04T12:15:42.629Z,9.60
2023-01-04T12:18:19.566Z,9.70
2023-01-04T12:20:46.392Z,9.80
2023-01-04T12:23:14.257Z,9.50
2023-01-04T12:25:51.617Z,9.70
2023-01-04T12:28:39.995Z,9.60
2023-01-04T12:31:19.744Z,9.50
2023-01-04T12:33:56.230Z,9.80
2023-01-04T12:36:38.013Z,9.50
2023-01-04T12:39:16.687Z,9.60
2023-01-04T12:42:00.323Z,9.50
2023-01-04T12:44:39.877Z,9.60
2023-01-04T12:47:37.362Z,10.00
2023-01-04T12:50:14.596Z,10.00
2023-01-04T12:55:36.758Z,10.10
2023-01-04T12:58:42.399Z,10.10
2023-01-04T13:01:28.852Z,10.10
2023-01-04T13:04:21.431Z,10.20
2023-01-04T13:06:48.522Z,10.10
2023-01-04T13:09:24.222Z,10.00
2023-01-04T13:12:20.751Z,9.90
2023-01-04T13:14:50.325Z,9.80
2023-01-04T13:17:21.205Z,9.90
2023-01-04T13:19:49.287Z,9.90
2023-01-04T13:22:28.451Z,9.90
2023-01-04T13:24:58.034Z,10.00
2023-01-04T13:27:26.571Z,9.90
2023-01-04T13:29:53.767Z,9.80
2023-01-04T13:32:28.200Z,9.90
2023-01-04T13:34:56.209Z,9.90
2023-01-04T13:37:27.057Z,9.90
2023-01-04T13:40:26.698Z,9.70
2023-01-04T13:43:15.363Z,9.60
2023-01-04T13:46:06.215Z,9.40
2023-01-04T13:48:39.157Z,9.50
2023-01-04T13:51:15.858Z,9.60
2023-01-04T13:53:52.102Z,9.70
2023-01-04T13:56:24.504Z,9.70
2023-01-04T13:58:51.886Z,9.70
2023-01-04T14:01:29.633Z,9.60
2023-01-04T14:04:03.546Z,9.60
2023-01-04T14:06:33.970Z,9.40
2023-01-04T14:09:10.654Z,9.30
2023-01-04T14:12:08.092Z,9.10
2023-01-04T14:14:50.835Z,9.00
2023-01-04T14:17:29.927Z,8.90
2023-01-04T14:19:58.081Z,8.80
2023-01-04T14:22:24.842Z,8.60
2023-01-04T14:26:07.081Z,8.60
2023-01-04T14:32:20.221Z,8.30
2023-01-04T14:34:47.063Z,8.20
2023-01-04T14:37:44.109Z,8.20
2023-01-04T14:43:59.700Z,7.80
2023-01-04T14:46:28.368Z,7.50
2023-01-04T14:48:55.719Z,7.40
2023-01-04T14:51:51.154Z,7.40
2023-01-04T14:54:24.657Z,7.40
2023-01-04T14:56:54.290Z,7.10
2023-01-04T14:59:25.100Z,6.90
2023-01-04T15:01:56.448Z,6.90
2023-01-04T15:04:23.988Z,6.40
2023-01-04T15:07:00.756Z,5.90
2023-01-04T15:09:28.578Z,6.10
2023-01-04T15:11:55.734Z,6.20
2023-01-04T15:14:22.689Z,6.40
2023-01-04T15:16:49.791Z,6.20
2023-01-04T15:19:16.613Z,5.60
2023-01-04T15:21:43.363Z,5.40
2023-01-04T15:24:10.925Z,5.50
2023-01-04T15:26:40.001Z,5.40
2023-01-04T15:29:08.701Z,5.10
2023-01-04T15:31:39.731Z,4.90
2023-01-04T15:34:07.920Z,5.00
2023-01-04T15:36:38.551Z,5.10
2023-01-04T15:39:05.835Z,5.40
2023-01-04T15:41:51.288Z,5.60
2023-01-04T15:44:18.184Z,5.40
2023-01-04T15:46:45.468Z,4.90
2023-01-04T15:49:17.230Z,5.00
2023-01-04T15:51:45.754Z,5.00
2023-01-04T15:54:13.821Z,5.20
2023-01-04T16:01:11.361Z,4.50
2023-01-04T16:07:36.211Z,4.60
2023-01-04T16:13:47.399Z,4.20
2023-01-04T16:19:56.816Z,4.40
2023-01-04T16:29:52.080Z,4.60
2023-01-04T16:32:27.632Z,4.50
2023-01-04T16:34:54.615Z,4.50
2023-01-04T16:37:21.429Z,4.30
2023-01-04T16:40:05.838Z,4.40
2023-01-04T16:42:33.690Z,4.70
2023-01-04T16:45:00.465Z,4.50
2023-01-04T16:47:27.319Z,4.40
2023-01-04T16:49:54.392Z,4.60
2023-01-04T16:52:21.467Z,4.60
2023-01-04T16:54:49.192Z,4.70
2023-01-04T16:57:16.042Z,4.70
2023-01-04T16:59:42.899Z,4.60
2023-01-04T17:02:13.579Z,4.50
2023-01-04T17:04:40.608Z,4.60
2023-01-04T17:07:07.570Z,4.70
2023-01-04T17:09:34.716Z,4.40
2023-01-04T17:12:44.950Z,4.40
2023-01-04T17:15:07.918Z,4.40
2023-01-04T17:17:37.630Z,4.60
2023-01-04T17:20:06.449Z,4.40
2023-01-04T17:22:34.912Z,4.40
2023-01-04T17:25:02.247Z,4.40
2023-01-04T17:27:29.072Z,4.60
2023-01-04T17:29:55.835Z,4.70
2023-01-04T17:32:22.675Z,4.50
2023-01-04T17:34:50.071Z,4.60
2023-01-04T17:37:16.869Z,4.70
2023-01-04T17:39:44.041Z,4.70
2023-01-04T17:42:10.849Z,4.70
2023-01-04T17:44:37.885Z,4.60
2023-01-04T17:47:04.720Z,4.70
2023-01-04T17:49:32.514Z,4.60
2023-01-04T17:52:00.083Z,4.60
2023-01-04T17:54:27.148Z,4.70
2023-01-04T17:56:54.206Z,4.60
2023-01-04T17:59:21.037Z,4.70
2023-01-04T18:01:47.914Z,4.70
2023-01-04T18:04:14.893Z,4.70
2023-01-04T18:06:41.644Z,4.80
2023-01-04T18:09:09.074Z,4.70
2023-01-04T18:11:36.647Z,4.70
2023-01-04T18:14:07.781Z,4.80
2023-01-04T18:16:56.448Z,4.70
2023-01-04T18:19:25.749Z,4.60
2023-01-04T18:21:52.564Z,4.60
2023-01-04T18:24:36.687Z,4.80
2023-01-04T18:27:23.077Z,4.80
2023-01-04T18:30:12.117Z,4.60
2023-01-04T18:40:26.993Z,4.60
2023-01-04T19:01:34.628Z,4.60
2023-01-04T19:04:20.360Z,4.70
2023-01-04T19:06:47.140Z,4.80
2023-01-04T19:09:13.951Z,4.80
2023-01-04T19:11:40.789Z,4.60
2023-01-04T19:14:07.613Z,4.70
2023-01-04T19:16:34.386Z,4.90
2023-01-04T19:22:49.017Z,4.90
2023-01-04T19:25:15.816Z,4.60
2023-01-04T19:27:42.579Z,4.60
2023-01-04T19:30:09.791Z,4.80
2023-01-04T19:32:36.578Z,4.80
2023-01-04T19:35:03.578Z,4.70
2023-01-04T19:37:30.429Z,4.80
2023-01-04T19:39:57.256Z,4.90
2023-01-04T19:42:24.041Z,4.70
2023-01-04T19:44:50.936Z,4.50
2023-01-04T19:47:17.774Z,4.60
2023-01-04T19:49:44.617Z,4.70
2023-01-04T19:52:11.392Z,4.80
2023-01-04T19:54:38.179Z,4.60
2023-01-04T19:57:04.956Z,4.70
2023-01-04T19:59:31.935Z,4.70
2023-01-04T20:01:58.893Z,4.70
2023-01-04T20:04:27.840Z,4.70
2023-01-04T20:06:54.766Z,4.70
2023-01-04T20:09:25.854Z,4.50
2023-01-04T20:16:06.865Z,4.40
2023-01-04T20:18:34.394Z,4.40
2023-01-04T20:24:52.830Z,4.50
2023-01-04T20:27:19.753Z,4.30
2023-01-04T20:29:46.602Z,4.40
2023-01-04T20:32:13.355Z,4.40
2023-01-04T20:34:40.701Z,4.40
2023-01-04T20:37:07.473Z,4.30
2023-01-04T20:39:34.321Z,4.30
2023-01-04T20:42:19.655Z,4.20
2023-01-04T20:44:46.533Z,4.30
2023-01-04T20:47:13.378Z,4.40
2023-01-04T20:49:40.146Z,4.40
2023-01-04T20:52:06.994Z,4.10
2023-01-04T20:54:33.810Z,4.20
2023-01-04T20:57:00.674Z,4.20
2023-01-04T20:59:27.456Z,4.20
2023-01-04T21:01:54.445Z,4.20
2023-01-04T21:04:21.451Z,4.20
2023-01-04T21:06:48.243Z,4.30
2023-01-04T21:09:14.998Z,4.10
2023-01-04T21:11:41.880Z,4.00
2023-01-04T21:14:11.031Z,4.10
2023-01-04T21:16:41.322Z,4.00
2023-01-04T21:19:09.135Z,4.00
2023-01-04T21:21:35.931Z,4.00
2023-01-04T21:24:02.794Z,4.00
2023-01-04T21:26:29.695Z,3.80
2023-01-04T21:28:56.455Z,3.90
2023-01-04T21:31:25.024Z,4.00
2023-01-04T21:33:52.736Z,4.00
2023-01-04T21:36:25.449Z,4.00
2023-01-04T21:38:57.100Z,4.00
2023-01-04T21:41:25.470Z,3.80
2023-01-04T21:43:54.116Z,4.00
2023-01-04T21:46:21.559Z,4.00
2023-01-04T21:48:48.441Z,3.60
2023-01-04T21:51:15.573Z,3.70
2023-01-04T21:53:42.524Z,3.90
2023-01-04T21:56:17.963Z,3.70
2023-01-04T21:58:45.240Z,3.80
2023-01-04T22:01:17.865Z,3.80
2023-01-04T22:03:44.794Z,3.90
2023-01-04T22:06:13.981Z,3.80
2023-01-04T22:08:44.234Z,3.90
2023-01-04T22:11:11.471Z,4.00
2023-01-04T22:13:38.717Z,3.90
2023-01-04T22:16:07.837Z,3.80
2023-01-04T22:18:34.764Z,3.70
2023-01-04T22:21:08.309Z,3.80
2023-01-04T22:23:35.148Z,3.70
2023-01-04T22:26:02.107Z,3.70
2023-01-04T22:28:34.683Z,3.80
2023-01-04T22:31:05.908Z,3.70
2023-01-04T22:33:34.181Z,3.50
2023-01-04T22:36:04.850Z,3.50
2023-01-04T22:38:59.512Z,3.60
2023-01-04T22:41:28.226Z,3.80
2023-01-04T22:43:57.087Z,3.90
2023-01-04T22:46:24.692Z,3.80
2023-01-04T22:48:51.572Z,3.90
2023-01-04T22:51:19.778Z,3.80
2023-01-04T22:53:47.940Z,3.90
2023-01-04T22:56:19.324Z,3.60
2023-01-04T22:58:52.456Z,3.50
2023-01-04T23:01:24.860Z,3.60
2023-01-04T23:03:52.451Z,3.60
2023-01-04T23:06:20.032Z,3.70
2023-01-04T23:08:46.811Z,3.80
2023-01-04T23:11:18.670Z,3.70
2023-01-04T23:13:45.590Z,3.80
2023-01-04T23:16:15.030Z,3.50
2023-01-04T23:18:41.936Z,3.50
2023-01-04T23:21:09.151Z,3.50
2023-01-04T23:23:36.205Z,3.40
2023-01-04T23:26:08.574Z,3.50
2023-01-04T23:28:37.218Z,3.60
2023-01-04T23:31:07.496Z,3.60
2023-01-04T23:33:36.867Z,3.30
2023-01-04T23:36:15.476Z,3.40
2023-01-04T23:38:43.338Z,3.40
2023-01-04T23:41:10.911Z,3.30
2023-01-04T23:43:38.872Z,3.10
2023-01-04T23:49:55.452Z,3.10
2023-01-04T23:56:15.944Z,3.30
